Estatísticas do Tribal Wars: pt59: Ennoblements

Por favor note que as conquistas mostradas nesta página são ao VIVO (quando uma aldeia é conquistada, aparece aqui). Isto quer dizer que enquanto são mostradas aqui, podem não ser mostradas em outras partes do site durante até uma hora.

AldeiaPontosAntigo DonoNovo DonoData/Tempo
Salinas das Margaridas (438|241) K243,817Macelo Sales filipeteira21 [O QUE?]2018-08-18 - 19:19:17
Aldeia bárbara (310|313) K33727AndreTop69 [O QUE?]2018-08-18 - 19:19:09
Aldeia bárbara (757|537) K577,825galiinha [LSD25]2018-08-18 - 19:15:15
A3S (491|652) K649,505delarsenal [TLB!]brac10 [SomNia]2018-08-18 - 19:15:13
Aldeia bárbara (383|593) K531,502eNyadres [~TLM~]2018-08-18 - 19:11:13
Aldeia bárbara (420|626) K641,510Senhor kuarteira [~TLM~]2018-08-18 - 19:08:38
Aldeia bárbara (551|255) K25512VascoMOREIRA [BC.]2018-08-18 - 19:08:33
048 (628|462) K4610,495xandre.7 [TLB]O Templo [$TLB$]2018-08-18 - 19:07:56
Aldeia bárbara (383|558) K531,501Edu di Ghetto [~TLM~]2018-08-18 - 19:05:45
Aldeia bárbara (754|576) K57547kilador [$TLB$]2018-08-18 - 19:04:16
119_1 (692|438) K4610,495xandre.7 [TLB]O Templo [$TLB$]2018-08-18 - 18:54:05
Aldeia bárbara (420|240) K24341alycia27 [Hm]2018-08-18 - 18:53:25
Aldeia bárbara (740|574) K57901demonwater [?TLB?]2018-08-18 - 18:52:44
Aldeia bárbara (743|427) K47974ferraz884 [{TLB}]2018-08-18 - 18:50:17
Kalanga (543|267) K254,474pate1971 [TLB]jgoro93 [TLB]2018-08-18 - 18:47:29
Aldeia bárbara (559|247) K25683pate1971 [TLB]2018-08-18 - 18:45:19
Aldeia bárbara (397|256) K23359lordkota [~TLM~]2018-08-18 - 18:44:53
Aldeia bárbara (680|303) K36517facethekings [TLB]2018-08-18 - 18:44:53
Aldeia bárbara (264|572) K521,231kunagurer [DEAD]2018-08-18 - 18:32:13
Aldeia bárbara (641|707) K76810pedro S.C. [TLB]2018-08-18 - 18:28:42
Aldeia bárbara (739|574) K57486demonwater [?TLB?]2018-08-18 - 18:17:37
Aldeia bárbara (308|623) K631,888zPichel [SomNia]2018-08-18 - 18:17:21
Aldeia bárbara (697|310) K36444Rei boss69 [-WAR-]2018-08-18 - 18:13:49
Aldeia bárbara (344|334) K331,260ScrOtchy [OQUE?!]2018-08-18 - 18:13:30
Aldeia bárbara (375|609) K631,509Rei JustAce [SomNia]2018-08-18 - 18:09:55
Aldeia bárbara (605|451) K4633Soldado Milhões [TLB]2018-08-18 - 18:06:32
Aldeia bárbara (603|450) K4644Soldado Milhões [TLB]2018-08-18 - 17:57:49
Aldeia bárbara (730|586) K57751Cativante [TLM]2018-08-18 - 17:49:57
Aldeia bárbara (382|559) K531,496Edu di Ghetto [~TLM~]2018-08-18 - 17:49:52
Aldeia bárbara (680|312) K36592Eggy [TLB!]2018-08-18 - 17:47:20
Aldeia bárbara (327|305) K33449tsuyoihito [O QUE?]2018-08-18 - 17:43:39
Aldeia bárbara (592|459) K4527Raça Modesto [TLB]2018-08-18 - 17:43:33
Nobre (526|511) K559,592Kdar [TLB!]Raça Modesto [TLB]2018-08-18 - 17:43:11
Aldeia bárbara (678|302) K36619facethekings [TLB]2018-08-18 - 17:36:19
Aldeia bárbara (336|441) K43711cavador10 [~TLM?~]2018-08-18 - 17:29:29
0082 (571|542) K559,742O verdadeiro calimero26 [$TLB$]BrunoBibes-SLB [TLB]2018-08-18 - 17:28:53
Aldeia bárbara (606|445) K4636Soldado Milhões [TLB]2018-08-18 - 17:24:42
Aldeia bárbara (657|704) K76802FabioZeferino43 [$TLB$]2018-08-18 - 17:22:18
Aldeia bárbara (428|615) K641,498Sturmassiap [~TLM~]2018-08-18 - 17:19:57

2018-08-18 19:19:50 BST

Site by Clash Rank - Report error - Privacy policy - 2.1 272